sensor_id;sensor_type;location;lat;lon;timestamp;P1;durP1;ratioP1;P2;durP2;ratioP2
20870;SDS011;10595;51.218;3.452;2023-07-30T00:01:35;15.10;;;4.40;;
20870;SDS011;10595;51.218;3.452;2023-07-30T00:04:01;18.80;;;4.13;;
20870;SDS011;10595;51.218;3.452;2023-07-30T00:06:27;12.37;;;3.73;;
20870;SDS011;10595;51.218;3.452;2023-07-30T00:08:53;15.93;;;4.03;;
20870;SDS011;10595;51.218;3.452;2023-07-30T00:11:19;22.90;;;4.60;;
20870;SDS011;10595;51.218;3.452;2023-07-30T00:13:45;17.53;;;3.90;;
20870;SDS011;10595;51.218;3.452;2023-07-30T00:16:11;16.67;;;4.13;;
20870;SDS011;10595;51.218;3.452;2023-07-30T00:18:37;17.37;;;4.20;;
20870;SDS011;10595;51.218;3.452;2023-07-30T00:21:03;16.37;;;4.33;;
20870;SDS011;10595;51.218;3.452;2023-07-30T00:23:29;15.83;;;4.00;;
20870;SDS011;10595;51.218;3.452;2023-07-30T00:25:55;15.87;;;3.73;;
20870;SDS011;10595;51.218;3.452;2023-07-30T00:28:21;18.70;;;4.47;;
20870;SDS011;10595;51.218;3.452;2023-07-30T00:30:47;21.40;;;4.80;;
20870;SDS011;10595;51.218;3.452;2023-07-30T00:33:13;18.63;;;4.30;;
20870;SDS011;10595;51.218;3.452;2023-07-30T00:35:39;18.13;;;4.70;;
20870;SDS011;10595;51.218;3.452;2023-07-30T00:38:05;18.40;;;4.43;;
20870;SDS011;10595;51.218;3.452;2023-07-30T00:40:31;26.20;;;4.50;;
20870;SDS011;10595;51.218;3.452;2023-07-30T00:42:57;24.93;;;4.77;;
20870;SDS011;10595;51.218;3.452;2023-07-30T00:45:23;25.83;;;5.17;;
20870;SDS011;10595;51.218;3.452;2023-07-30T00:47:49;22.93;;;4.70;;
20870;SDS011;10595;51.218;3.452;2023-07-30T00:50:15;21.90;;;4.57;;
20870;SDS011;10595;51.218;3.452;2023-07-30T00:52:43;19.73;;;4.33;;
20870;SDS011;10595;51.218;3.452;2023-07-30T00:55:09;18.87;;;4.10;;
20870;SDS011;10595;51.218;3.452;2023-07-30T00:57:35;18.60;;;4.17;;
20870;SDS011;10595;51.218;3.452;2023-07-30T01:00:02;23.37;;;4.60;;
20870;SDS011;10595;51.218;3.452;2023-07-30T01:02:31;17.93;;;3.90;;
20870;SDS011;10595;51.218;3.452;2023-07-30T01:04:57;18.13;;;4.57;;
20870;SDS011;10595;51.218;3.452;2023-07-30T01:07:25;22.77;;;4.73;;
20870;SDS011;10595;51.218;3.452;2023-07-30T01:09:51;20.33;;;4.23;;
20870;SDS011;10595;51.218;3.452;2023-07-30T01:12:17;25.90;;;5.30;;
20870;SDS011;10595;51.218;3.452;2023-07-30T01:14:45;20.27;;;4.47;;
20870;SDS011;10595;51.218;3.452;2023-07-30T01:17:11;23.27;;;4.00;;
20870;SDS011;10595;51.218;3.452;2023-07-30T01:19:37;24.30;;;4.50;;
20870;SDS011;10595;51.218;3.452;2023-07-30T01:22:03;17.70;;;4.17;;
20870;SDS011;10595;51.218;3.452;2023-07-30T01:24:29;24.87;;;4.60;;
20870;SDS011;10595;51.218;3.452;2023-07-30T01:27:01;20.30;;;4.53;;
20870;SDS011;10595;51.218;3.452;2023-07-30T01:29:28;22.00;;;4.17;;
20870;SDS011;10595;51.218;3.452;2023-07-30T01:31:56;24.07;;;4.67;;
20870;SDS011;10595;51.218;3.452;2023-07-30T01:34:23;20.27;;;4.10;;
20870;SDS011;10595;51.218;3.452;2023-07-30T01:36:50;18.00;;;4.50;;
20870;SDS011;10595;51.218;3.452;2023-07-30T01:39:17;17.73;;;4.17;;
20870;SDS011;10595;51.218;3.452;2023-07-30T01:41:43;29.17;;;4.30;;
20870;SDS011;10595;51.218;3.452;2023-07-30T01:44:09;17.20;;;4.20;;
20870;SDS011;10595;51.218;3.452;2023-07-30T01:46:35;22.13;;;4.80;;
20870;SDS011;10595;51.218;3.452;2023-07-30T01:49:01;21.50;;;3.90;;
20870;SDS011;10595;51.218;3.452;2023-07-30T01:51:27;15.37;;;3.60;;
20870;SDS011;10595;51.218;3.452;2023-07-30T01:53:53;18.03;;;4.40;;
20870;SDS011;10595;51.218;3.452;2023-07-30T01:56:19;15.07;;;3.83;;
20870;SDS011;10595;51.218;3.452;2023-07-30T01:58:45;21.07;;;4.50;;
20870;SDS011;10595;51.218;3.452;2023-07-30T02:01:11;17.93;;;4.60;;
20870;SDS011;10595;51.218;3.452;2023-07-30T02:03:37;22.30;;;4.23;;
20870;SDS011;10595;51.218;3.452;2023-07-30T02:06:03;22.63;;;4.70;;
20870;SDS011;10595;51.218;3.452;2023-07-30T02:08:29;15.13;;;4.23;;
20870;SDS011;10595;51.218;3.452;2023-07-30T02:10:56;24.50;;;4.77;;
20870;SDS011;10595;51.218;3.452;2023-07-30T02:13:22;17.97;;;4.37;;
20870;SDS011;10595;51.218;3.452;2023-07-30T02:15:48;18.97;;;5.07;;
20870;SDS011;10595;51.218;3.452;2023-07-30T02:18:14;21.27;;;4.03;;
20870;SDS011;10595;51.218;3.452;2023-07-30T02:20:40;19.87;;;4.50;;
20870;SDS011;10595;51.218;3.452;2023-07-30T02:23:07;24.00;;;4.23;;
20870;SDS011;10595;51.218;3.452;2023-07-30T02:25:33;21.80;;;4.77;;
20870;SDS011;10595;51.218;3.452;2023-07-30T02:27:59;23.37;;;4.47;;
20870;SDS011;10595;51.218;3.452;2023-07-30T02:30:26;20.80;;;4.10;;
20870;SDS011;10595;51.218;3.452;2023-07-30T02:32:52;18.17;;;4.17;;
20870;SDS011;10595;51.218;3.452;2023-07-30T02:35:18;19.27;;;4.10;;
20870;SDS011;10595;51.218;3.452;2023-07-30T02:37:44;19.37;;;5.00;;
20870;SDS011;10595;51.218;3.452;2023-07-30T02:40:10;21.17;;;4.53;;
20870;SDS011;10595;51.218;3.452;2023-07-30T02:42:36;19.67;;;4.23;;
20870;SDS011;10595;51.218;3.452;2023-07-30T02:45:03;21.07;;;4.47;;
20870;SDS011;10595;51.218;3.452;2023-07-30T02:47:30;19.00;;;4.03;;
20870;SDS011;10595;51.218;3.452;2023-07-30T02:49:56;19.87;;;4.93;;
20870;SDS011;10595;51.218;3.452;2023-07-30T02:52:22;19.03;;;4.37;;
20870;SDS011;10595;51.218;3.452;2023-07-30T02:54:48;20.03;;;4.40;;
20870;SDS011;10595;51.218;3.452;2023-07-30T02:57:14;21.83;;;5.47;;
20870;SDS011;10595;51.218;3.452;2023-07-30T02:59:40;20.97;;;5.03;;
20870;SDS011;10595;51.218;3.452;2023-07-30T03:02:06;21.50;;;4.43;;
20870;SDS011;10595;51.218;3.452;2023-07-30T03:04:32;16.40;;;4.00;;
20870;SDS011;10595;51.218;3.452;2023-07-30T03:06:58;22.27;;;4.43;;
20870;SDS011;10595;51.218;3.452;2023-07-30T03:09:24;22.23;;;4.90;;
20870;SDS011;10595;51.218;3.452;2023-07-30T03:11:52;22.30;;;4.50;;
20870;SDS011;10595;51.218;3.452;2023-07-30T03:14:18;33.83;;;6.00;;
20870;SDS011;10595;51.218;3.452;2023-07-30T03:16:47;16.80;;;4.47;;
20870;SDS011;10595;51.218;3.452;2023-07-30T03:19:13;20.93;;;4.57;;
20870;SDS011;10595;51.218;3.452;2023-07-30T03:21:39;24.20;;;4.77;;
20870;SDS011;10595;51.218;3.452;2023-07-30T03:24:05;23.93;;;5.30;;
20870;SDS011;10595;51.218;3.452;2023-07-30T03:26:31;27.13;;;5.87;;
20870;SDS011;10595;51.218;3.452;2023-07-30T03:28:57;15.80;;;4.33;;
20870;SDS011;10595;51.218;3.452;2023-07-30T03:31:23;26.37;;;5.80;;
20870;SDS011;10595;51.218;3.452;2023-07-30T03:33:49;23.47;;;5.10;;
20870;SDS011;10595;51.218;3.452;2023-07-30T03:36:15;22.80;;;4.40;;
20870;SDS011;10595;51.218;3.452;2023-07-30T03:38:42;23.10;;;5.00;;
20870;SDS011;10595;51.218;3.452;2023-07-30T03:41:08;20.50;;;5.50;;
20870;SDS011;10595;51.218;3.452;2023-07-30T03:43:35;29.27;;;4.83;;
20870;SDS011;10595;51.218;3.452;2023-07-30T03:46:01;23.07;;;4.90;;
20870;SDS011;10595;51.218;3.452;2023-07-30T03:48:27;25.97;;;4.97;;
20870;SDS011;10595;51.218;3.452;2023-07-30T03:50:54;22.93;;;5.50;;
20870;SDS011;10595;51.218;3.452;2023-07-30T03:53:20;25.33;;;5.03;;
20870;SDS011;10595;51.218;3.452;2023-07-30T03:55:46;22.77;;;4.83;;
20870;SDS011;10595;51.218;3.452;2023-07-30T03:58:12;18.73;;;4.67;;
20870;SDS011;10595;51.218;3.452;2023-07-30T04:00:38;16.77;;;4.53;;
20870;SDS011;10595;51.218;3.452;2023-07-30T04:03:04;19.13;;;4.37;;
20870;SDS011;10595;51.218;3.452;2023-07-30T04:05:31;26.27;;;5.37;;
20870;SDS011;10595;51.218;3.452;2023-07-30T04:07:57;21.53;;;5.77;;
20870;SDS011;10595;51.218;3.452;2023-07-30T04:10:23;22.67;;;4.40;;
20870;SDS011;10595;51.218;3.452;2023-07-30T04:12:49;17.73;;;4.80;;
20870;SDS011;10595;51.218;3.452;2023-07-30T04:15:15;29.53;;;6.10;;
20870;SDS011;10595;51.218;3.452;2023-07-30T04:17:41;21.37;;;5.20;;
20870;SDS011;10595;51.218;3.452;2023-07-30T04:20:08;23.73;;;4.70;;
20870;SDS011;10595;51.218;3.452;2023-07-30T04:22:37;22.93;;;5.00;;
20870;SDS011;10595;51.218;3.452;2023-07-30T04:25:06;22.97;;;4.63;;
20870;SDS011;10595;51.218;3.452;2023-07-30T04:27:32;24.97;;;4.67;;
20870;SDS011;10595;51.218;3.452;2023-07-30T04:29:59;20.93;;;4.80;;
20870;SDS011;10595;51.218;3.452;2023-07-30T04:32:25;24.67;;;4.50;;
20870;SDS011;10595;51.218;3.452;2023-07-30T04:34:51;21.40;;;5.13;;
20870;SDS011;10595;51.218;3.452;2023-07-30T04:37:17;30.37;;;5.20;;
20870;SDS011;10595;51.218;3.452;2023-07-30T04:39:43;22.93;;;5.27;;
20870;SDS011;10595;51.218;3.452;2023-07-30T04:42:09;26.93;;;5.27;;
20870;SDS011;10595;51.218;3.452;2023-07-30T04:44:35;25.13;;;5.27;;
20870;SDS011;10595;51.218;3.452;2023-07-30T04:47:01;27.53;;;6.07;;
20870;SDS011;10595;51.218;3.452;2023-07-30T04:49:27;23.27;;;4.73;;
20870;SDS011;10595;51.218;3.452;2023-07-30T04:51:53;22.10;;;4.77;;
20870;SDS011;10595;51.218;3.452;2023-07-30T04:54:19;21.17;;;4.33;;
20870;SDS011;10595;51.218;3.452;2023-07-30T04:56:45;21.63;;;5.17;;
20870;SDS011;10595;51.218;3.452;2023-07-30T04:59:11;16.43;;;5.23;;
20870;SDS011;10595;51.218;3.452;2023-07-30T05:01:37;28.57;;;4.97;;
20870;SDS011;10595;51.218;3.452;2023-07-30T05:04:03;22.83;;;4.67;;
20870;SDS011;10595;51.218;3.452;2023-07-30T05:06:29;30.37;;;4.73;;
20870;SDS011;10595;51.218;3.452;2023-07-30T05:08:56;25.60;;;4.60;;
20870;SDS011;10595;51.218;3.452;2023-07-30T05:11:22;27.03;;;4.47;;
20870;SDS011;10595;51.218;3.452;2023-07-30T05:13:48;27.80;;;4.70;;
20870;SDS011;10595;51.218;3.452;2023-07-30T05:16:14;22.93;;;5.10;;
20870;SDS011;10595;51.218;3.452;2023-07-30T05:18:40;26.47;;;5.07;;
20870;SDS011;10595;51.218;3.452;2023-07-30T05:21:06;23.53;;;4.23;;
20870;SDS011;10595;51.218;3.452;2023-07-30T05:23:32;29.57;;;5.20;;
20870;SDS011;10595;51.218;3.452;2023-07-30T05:25:58;26.17;;;4.80;;
20870;SDS011;10595;51.218;3.452;2023-07-30T05:28:25;21.53;;;4.80;;
20870;SDS011;10595;51.218;3.452;2023-07-30T05:30:51;29.50;;;5.90;;
20870;SDS011;10595;51.218;3.452;2023-07-30T05:33:17;22.40;;;4.00;;
20870;SDS011;10595;51.218;3.452;2023-07-30T05:35:43;24.50;;;5.03;;
20870;SDS011;10595;51.218;3.452;2023-07-30T05:38:10;24.23;;;4.70;;
20870;SDS011;10595;51.218;3.452;2023-07-30T05:40:36;16.47;;;3.90;;
20870;SDS011;10595;51.218;3.452;2023-07-30T05:43:02;23.10;;;4.97;;
20870;SDS011;10595;51.218;3.452;2023-07-30T05:45:29;23.07;;;4.63;;
20870;SDS011;10595;51.218;3.452;2023-07-30T05:47:55;27.20;;;5.60;;
20870;SDS011;10595;51.218;3.452;2023-07-30T05:50:21;24.33;;;4.67;;
20870;SDS011;10595;51.218;3.452;2023-07-30T05:52:47;28.07;;;4.87;;
20870;SDS011;10595;51.218;3.452;2023-07-30T05:55:13;18.87;;;4.63;;
20870;SDS011;10595;51.218;3.452;2023-07-30T05:57:39;23.70;;;5.03;;
20870;SDS011;10595;51.218;3.452;2023-07-30T06:00:05;23.77;;;4.67;;
20870;SDS011;10595;51.218;3.452;2023-07-30T06:02:31;21.17;;;3.63;;
20870;SDS011;10595;51.218;3.452;2023-07-30T06:04:57;23.73;;;4.90;;
20870;SDS011;10595;51.218;3.452;2023-07-30T06:07:23;22.67;;;4.70;;
20870;SDS011;10595;51.218;3.452;2023-07-30T06:09:49;21.13;;;4.93;;
20870;SDS011;10595;51.218;3.452;2023-07-30T06:12:15;24.80;;;5.37;;
20870;SDS011;10595;51.218;3.452;2023-07-30T06:14:41;19.20;;;4.23;;
20870;SDS011;10595;51.218;3.452;2023-07-30T06:17:07;18.23;;;4.30;;
20870;SDS011;10595;51.218;3.452;2023-07-30T06:19:34;20.87;;;5.23;;
20870;SDS011;10595;51.218;3.452;2023-07-30T06:22:00;21.27;;;4.10;;
20870;SDS011;10595;51.218;3.452;2023-07-30T06:24:26;26.57;;;5.47;;
20870;SDS011;10595;51.218;3.452;2023-07-30T06:26:52;24.57;;;4.37;;
20870;SDS011;10595;51.218;3.452;2023-07-30T06:29:17;22.53;;;4.10;;
20870;SDS011;10595;51.218;3.452;2023-07-30T06:31:43;24.50;;;4.63;;
20870;SDS011;10595;51.218;3.452;2023-07-30T06:34:10;21.73;;;4.63;;
20870;SDS011;10595;51.218;3.452;2023-07-30T06:36:36;23.33;;;4.03;;
20870;SDS011;10595;51.218;3.452;2023-07-30T06:39:02;17.77;;;4.83;;
20870;SDS011;10595;51.218;3.452;2023-07-30T06:41:28;20.47;;;4.23;;
20870;SDS011;10595;51.218;3.452;2023-07-30T06:43:54;24.37;;;4.40;;
20870;SDS011;10595;51.218;3.452;2023-07-30T06:46:20;20.00;;;4.00;;
20870;SDS011;10595;51.218;3.452;2023-07-30T06:48:46;21.53;;;4.40;;
20870;SDS011;10595;51.218;3.452;2023-07-30T06:51:12;18.37;;;4.00;;
20870;SDS011;10595;51.218;3.452;2023-07-30T06:53:38;21.23;;;4.13;;
20870;SDS011;10595;51.218;3.452;2023-07-30T06:56:04;26.00;;;4.30;;
20870;SDS011;10595;51.218;3.452;2023-07-30T06:58:30;19.03;;;4.40;;
20870;SDS011;10595;51.218;3.452;2023-07-30T07:00:56;22.13;;;4.07;;
20870;SDS011;10595;51.218;3.452;2023-07-30T07:03:22;23.73;;;4.47;;
20870;SDS011;10595;51.218;3.452;2023-07-30T07:05:52;21.40;;;4.80;;
20870;SDS011;10595;51.218;3.452;2023-07-30T07:08:19;17.37;;;3.77;;
20870;SDS011;10595;51.218;3.452;2023-07-30T07:10:45;17.53;;;4.67;;
20870;SDS011;10595;51.218;3.452;2023-07-30T07:13:11;18.57;;;3.73;;
20870;SDS011;10595;51.218;3.452;2023-07-30T07:15:40;19.00;;;3.63;;
20870;SDS011;10595;51.218;3.452;2023-07-30T07:18:06;15.90;;;4.13;;
20870;SDS011;10595;51.218;3.452;2023-07-30T07:20:32;20.17;;;4.37;;
20870;SDS011;10595;51.218;3.452;2023-07-30T07:22:58;20.17;;;3.97;;
20870;SDS011;10595;51.218;3.452;2023-07-30T07:25:24;15.70;;;4.30;;
20870;SDS011;10595;51.218;3.452;2023-07-30T07:27:50;20.47;;;3.57;;
20870;SDS011;10595;51.218;3.452;2023-07-30T07:30:16;18.70;;;3.60;;
20870;SDS011;10595;51.218;3.452;2023-07-30T07:32:42;18.60;;;4.20;;
20870;SDS011;10595;51.218;3.452;2023-07-30T07:35:08;16.27;;;4.40;;
20870;SDS011;10595;51.218;3.452;2023-07-30T07:37:35;18.93;;;3.83;;
20870;SDS011;10595;51.218;3.452;2023-07-30T07:40:01;20.47;;;4.17;;
20870;SDS011;10595;51.218;3.452;2023-07-30T07:42:28;15.53;;;3.33;;
20870;SDS011;10595;51.218;3.452;2023-07-30T07:44:55;13.20;;;3.00;;
20870;SDS011;10595;51.218;3.452;2023-07-30T07:47:21;10.70;;;3.50;;
20870;SDS011;10595;51.218;3.452;2023-07-30T07:49:47;13.40;;;2.80;;
20870;SDS011;10595;51.218;3.452;2023-07-30T07:52:14;12.53;;;3.10;;
20870;SDS011;10595;51.218;3.452;2023-07-30T07:54:40;12.80;;;2.40;;
20870;SDS011;10595;51.218;3.452;2023-07-30T07:57:07;12.97;;;2.53;;
20870;SDS011;10595;51.218;3.452;2023-07-30T07:59:33;10.83;;;2.50;;
20870;SDS011;10595;51.218;3.452;2023-07-30T08:01:59;10.23;;;2.30;;
20870;SDS011;10595;51.218;3.452;2023-07-30T08:04:25;12.07;;;2.40;;
20870;SDS011;10595;51.218;3.452;2023-07-30T08:06:51;8.63;;;1.47;;
20870;SDS011;10595;51.218;3.452;2023-07-30T08:09:17;8.63;;;1.97;;
20870;SDS011;10595;51.218;3.452;2023-07-30T08:11:44;7.17;;;1.40;;
20870;SDS011;10595;51.218;3.452;2023-07-30T08:14:10;10.13;;;1.67;;
20870;SDS011;10595;51.218;3.452;2023-07-30T08:16:36;8.43;;;1.53;;
20870;SDS011;10595;51.218;3.452;2023-07-30T08:19:02;5.80;;;1.10;;
20870;SDS011;10595;51.218;3.452;2023-07-30T08:21:28;6.33;;;1.53;;
20870;SDS011;10595;51.218;3.452;2023-07-30T08:23:54;7.10;;;1.57;;
20870;SDS011;10595;51.218;3.452;2023-07-30T08:26:20;6.47;;;1.60;;
20870;SDS011;10595;51.218;3.452;2023-07-30T08:28:46;5.50;;;1.67;;
20870;SDS011;10595;51.218;3.452;2023-07-30T08:31:12;7.60;;;1.30;;
20870;SDS011;10595;51.218;3.452;2023-07-30T08:33:38;6.87;;;1.40;;
20870;SDS011;10595;51.218;3.452;2023-07-30T08:36:04;5.17;;;1.40;;
20870;SDS011;10595;51.218;3.452;2023-07-30T08:38:30;5.43;;;1.37;;
20870;SDS011;10595;51.218;3.452;2023-07-30T08:40:56;4.40;;;1.40;;
20870;SDS011;10595;51.218;3.452;2023-07-30T08:43:22;4.10;;;1.63;;
20870;SDS011;10595;51.218;3.452;2023-07-30T08:45:48;7.70;;;2.30;;
20870;SDS011;10595;51.218;3.452;2023-07-30T08:48:14;5.53;;;1.57;;
20870;SDS011;10595;51.218;3.452;2023-07-30T08:50:40;8.27;;;1.70;;
20870;SDS011;10595;51.218;3.452;2023-07-30T08:53:07;6.80;;;1.80;;
20870;SDS011;10595;51.218;3.452;2023-07-30T08:55:34;8.07;;;1.70;;
20870;SDS011;10595;51.218;3.452;2023-07-30T08:58:03;5.77;;;1.50;;
20870;SDS011;10595;51.218;3.452;2023-07-30T09:00:30;6.30;;;1.83;;
20870;SDS011;10595;51.218;3.452;2023-07-30T09:02:58;4.73;;;1.57;;
20870;SDS011;10595;51.218;3.452;2023-07-30T09:05:25;5.63;;;2.00;;
20870;SDS011;10595;51.218;3.452;2023-07-30T09:07:54;7.83;;;1.87;;
20870;SDS011;10595;51.218;3.452;2023-07-30T09:10:20;5.67;;;1.33;;
20870;SDS011;10595;51.218;3.452;2023-07-30T09:12:46;4.53;;;1.60;;
20870;SDS011;10595;51.218;3.452;2023-07-30T09:15:18;7.37;;;2.00;;
20870;SDS011;10595;51.218;3.452;2023-07-30T09:17:44;7.03;;;1.57;;
20870;SDS011;10595;51.218;3.452;2023-07-30T09:20:11;5.77;;;1.57;;
20870;SDS011;10595;51.218;3.452;2023-07-30T09:22:37;5.27;;;1.77;;
20870;SDS011;10595;51.218;3.452;2023-07-30T09:25:05;5.93;;;1.73;;
20870;SDS011;10595;51.218;3.452;2023-07-30T09:27:31;5.10;;;1.63;;
20870;SDS011;10595;51.218;3.452;2023-07-30T09:29:58;6.63;;;1.27;;
20870;SDS011;10595;51.218;3.452;2023-07-30T09:32:28;7.50;;;1.30;;
20870;SDS011;10595;51.218;3.452;2023-07-30T09:34:54;10.93;;;1.63;;
20870;SDS011;10595;51.218;3.452;2023-07-30T09:37:20;5.73;;;1.33;;
20870;SDS011;10595;51.218;3.452;2023-07-30T09:39:49;9.87;;;2.00;;
20870;SDS011;10595;51.218;3.452;2023-07-30T09:42:15;6.13;;;1.30;;
20870;SDS011;10595;51.218;3.452;2023-07-30T09:44:41;7.33;;;1.30;;
20870;SDS011;10595;51.218;3.452;2023-07-30T09:47:10;9.13;;;2.30;;
20870;SDS011;10595;51.218;3.452;2023-07-30T09:49:37;5.27;;;1.30;;
20870;SDS011;10595;51.218;3.452;2023-07-30T09:52:03;5.20;;;1.30;;
20870;SDS011;10595;51.218;3.452;2023-07-30T09:54:30;6.67;;;1.43;;
20870;SDS011;10595;51.218;3.452;2023-07-30T09:56:56;7.80;;;1.47;;
20870;SDS011;10595;51.218;3.452;2023-07-30T09:59:22;13.40;;;2.00;;
20870;SDS011;10595;51.218;3.452;2023-07-30T10:01:49;10.13;;;1.40;;
20870;SDS011;10595;51.218;3.452;2023-07-30T10:04:18;9.40;;;2.13;;
20870;SDS011;10595;51.218;3.452;2023-07-30T10:06:58;9.77;;;1.70;;
20870;SDS011;10595;51.218;3.452;2023-07-30T10:09:26;5.47;;;1.60;;
20870;SDS011;10595;51.218;3.452;2023-07-30T10:11:54;8.40;;;1.37;;
20870;SDS011;10595;51.218;3.452;2023-07-30T10:14:21;7.97;;;1.40;;
20870;SDS011;10595;51.218;3.452;2023-07-30T10:16:55;6.07;;;1.40;;
20870;SDS011;10595;51.218;3.452;2023-07-30T10:19:25;7.87;;;1.40;;
20870;SDS011;10595;51.218;3.452;2023-07-30T10:22:19;5.63;;;1.37;;
20870;SDS011;10595;51.218;3.452;2023-07-30T10:24:55;6.87;;;1.20;;
20870;SDS011;10595;51.218;3.452;2023-07-30T10:27:26;8.93;;;1.53;;
20870;SDS011;10595;51.218;3.452;2023-07-30T10:30:11;8.60;;;1.30;;
20870;SDS011;10595;51.218;3.452;2023-07-30T10:35:41;5.83;;;1.50;;
20870;SDS011;10595;51.218;3.452;2023-07-30T10:38:20;5.33;;;1.00;;
20870;SDS011;10595;51.218;3.452;2023-07-30T10:41:02;4.47;;;1.17;;
20870;SDS011;10595;51.218;3.452;2023-07-30T10:43:30;3.23;;;1.20;;
20870;SDS011;10595;51.218;3.452;2023-07-30T10:45:56;5.70;;;1.13;;
20870;SDS011;10595;51.218;3.452;2023-07-30T10:48:29;4.23;;;1.00;;
20870;SDS011;10595;51.218;3.452;2023-07-30T10:50:55;3.40;;;0.93;;
20870;SDS011;10595;51.218;3.452;2023-07-30T10:53:21;5.57;;;1.50;;
20870;SDS011;10595;51.218;3.452;2023-07-30T10:55:47;6.60;;;1.10;;
20870;SDS011;10595;51.218;3.452;2023-07-30T10:58:14;4.33;;;1.10;;
20870;SDS011;10595;51.218;3.452;2023-07-30T11:00:41;8.80;;;1.63;;
20870;SDS011;10595;51.218;3.452;2023-07-30T11:03:07;6.33;;;1.40;;
20870;SDS011;10595;51.218;3.452;2023-07-30T11:05:33;5.00;;;1.30;;
20870;SDS011;10595;51.218;3.452;2023-07-30T11:07:59;4.70;;;1.77;;
20870;SDS011;10595;51.218;3.452;2023-07-30T11:10:25;5.67;;;1.60;;
20870;SDS011;10595;51.218;3.452;2023-07-30T11:12:51;10.40;;;2.03;;
20870;SDS011;10595;51.218;3.452;2023-07-30T11:15:17;10.67;;;1.87;;
20870;SDS011;10595;51.218;3.452;2023-07-30T11:17:43;10.30;;;2.07;;
20870;SDS011;10595;51.218;3.452;2023-07-30T11:20:23;7.70;;;2.00;;
20870;SDS011;10595;51.218;3.452;2023-07-30T11:22:51;5.67;;;1.87;;
20870;SDS011;10595;51.218;3.452;2023-07-30T11:25:17;7.63;;;1.93;;
20870;SDS011;10595;51.218;3.452;2023-07-30T11:27:47;7.97;;;1.77;;
20870;SDS011;10595;51.218;3.452;2023-07-30T11:30:13;6.97;;;1.70;;
20870;SDS011;10595;51.218;3.452;2023-07-30T11:32:39;10.27;;;2.00;;
20870;SDS011;10595;51.218;3.452;2023-07-30T11:35:05;9.20;;;2.40;;
20870;SDS011;10595;51.218;3.452;2023-07-30T11:37:33;5.27;;;1.50;;
20870;SDS011;10595;51.218;3.452;2023-07-30T11:39:59;5.30;;;1.83;;
20870;SDS011;10595;51.218;3.452;2023-07-30T11:42:25;6.07;;;1.50;;
20870;SDS011;10595;51.218;3.452;2023-07-30T11:44:54;4.00;;;1.33;;
20870;SDS011;10595;51.218;3.452;2023-07-30T11:47:21;7.40;;;1.77;;
20870;SDS011;10595;51.218;3.452;2023-07-30T11:49:57;5.60;;;1.30;;
20870;SDS011;10595;51.218;3.452;2023-07-30T11:52:23;6.43;;;1.50;;
20870;SDS011;10595;51.218;3.452;2023-07-30T11:55:10;5.77;;;1.50;;
20870;SDS011;10595;51.218;3.452;2023-07-30T11:57:35;6.23;;;1.40;;
20870;SDS011;10595;51.218;3.452;2023-07-30T12:00:02;8.37;;;1.90;;
20870;SDS011;10595;51.218;3.452;2023-07-30T12:02:29;6.13;;;1.60;;
20870;SDS011;10595;51.218;3.452;2023-07-30T12:04:55;11.20;;;1.40;;
20870;SDS011;10595;51.218;3.452;2023-07-30T12:07:24;4.80;;;1.47;;
20870;SDS011;10595;51.218;3.452;2023-07-30T12:09:50;6.33;;;1.40;;
20870;SDS011;10595;51.218;3.452;2023-07-30T12:12:16;7.13;;;1.10;;
20870;SDS011;10595;51.218;3.452;2023-07-30T12:14:43;7.23;;;1.60;;
20870;SDS011;10595;51.218;3.452;2023-07-30T12:17:10;9.20;;;1.60;;
20870;SDS011;10595;51.218;3.452;2023-07-30T12:19:36;5.13;;;1.40;;
20870;SDS011;10595;51.218;3.452;2023-07-30T12:22:02;7.10;;;1.63;;
20870;SDS011;10595;51.218;3.452;2023-07-30T12:24:28;7.93;;;1.60;;
20870;SDS011;10595;51.218;3.452;2023-07-30T12:26:54;9.87;;;1.80;;
20870;SDS011;10595;51.218;3.452;2023-07-30T12:29:20;9.97;;;2.03;;
20870;SDS011;10595;51.218;3.452;2023-07-30T12:31:46;5.43;;;1.80;;
20870;SDS011;10595;51.218;3.452;2023-07-30T12:34:12;8.13;;;1.60;;
20870;SDS011;10595;51.218;3.452;2023-07-30T12:36:38;4.53;;;1.50;;
20870;SDS011;10595;51.218;3.452;2023-07-30T12:39:04;5.33;;;1.63;;
20870;SDS011;10595;51.218;3.452;2023-07-30T12:41:31;4.23;;;1.47;;
20870;SDS011;10595;51.218;3.452;2023-07-30T12:43:57;6.57;;;1.77;;
20870;SDS011;10595;51.218;3.452;2023-07-30T12:46:23;9.73;;;2.20;;
20870;SDS011;10595;51.218;3.452;2023-07-30T12:48:49;7.33;;;2.03;;
20870;SDS011;10595;51.218;3.452;2023-07-30T12:51:15;11.07;;;2.20;;
20870;SDS011;10595;51.218;3.452;2023-07-30T12:53:41;6.13;;;1.83;;
20870;SDS011;10595;51.218;3.452;2023-07-30T12:56:07;6.33;;;2.33;;
20870;SDS011;10595;51.218;3.452;2023-07-30T12:58:33;10.03;;;2.07;;
20870;SDS011;10595;51.218;3.452;2023-07-30T13:00:59;7.50;;;2.50;;
20870;SDS011;10595;51.218;3.452;2023-07-30T13:03:25;5.63;;;2.20;;
20870;SDS011;10595;51.218;3.452;2023-07-30T13:05:51;11.27;;;2.13;;
20870;SDS011;10595;51.218;3.452;2023-07-30T13:08:17;6.87;;;2.20;;
20870;SDS011;10595;51.218;3.452;2023-07-30T13:10:43;9.17;;;2.13;;
20870;SDS011;10595;51.218;3.452;2023-07-30T13:13:09;8.37;;;2.23;;
20870;SDS011;10595;51.218;3.452;2023-07-30T13:15:35;8.13;;;2.27;;
20870;SDS011;10595;51.218;3.452;2023-07-30T13:18:01;6.87;;;2.13;;
20870;SDS011;10595;51.218;3.452;2023-07-30T13:20:27;10.27;;;2.83;;
20870;SDS011;10595;51.218;3.452;2023-07-30T13:22:53;11.73;;;2.93;;
20870;SDS011;10595;51.218;3.452;2023-07-30T13:25:19;10.33;;;2.80;;
20870;SDS011;10595;51.218;3.452;2023-07-30T13:27:45;10.33;;;2.80;;
20870;SDS011;10595;51.218;3.452;2023-07-30T13:30:11;9.23;;;2.77;;
20870;SDS011;10595;51.218;3.452;2023-07-30T13:32:37;10.90;;;2.73;;
20870;SDS011;10595;51.218;3.452;2023-07-30T13:35:03;9.80;;;2.67;;
20870;SDS011;10595;51.218;3.452;2023-07-30T13:37:29;10.77;;;3.20;;
20870;SDS011;10595;51.218;3.452;2023-07-30T13:39:55;7.67;;;2.73;;
20870;SDS011;10595;51.218;3.452;2023-07-30T13:42:21;11.33;;;2.40;;
20870;SDS011;10595;51.218;3.452;2023-07-30T13:44:47;14.37;;;3.63;;
20870;SDS011;10595;51.218;3.452;2023-07-30T13:47:13;11.47;;;2.60;;
20870;SDS011;10595;51.218;3.452;2023-07-30T13:49:39;11.00;;;2.97;;
20870;SDS011;10595;51.218;3.452;2023-07-30T13:52:06;13.30;;;2.73;;
20870;SDS011;10595;51.218;3.452;2023-07-30T13:54:32;8.33;;;2.80;;
20870;SDS011;10595;51.218;3.452;2023-07-30T13:56:58;9.10;;;2.60;;
20870;SDS011;10595;51.218;3.452;2023-07-30T13:59:24;11.10;;;3.03;;
20870;SDS011;10595;51.218;3.452;2023-07-30T14:01:50;11.83;;;2.80;;
20870;SDS011;10595;51.218;3.452;2023-07-30T14:04:16;9.37;;;3.10;;
20870;SDS011;10595;51.218;3.452;2023-07-30T14:06:42;8.57;;;2.67;;
20870;SDS011;10595;51.218;3.452;2023-07-30T14:09:09;14.73;;;3.03;;
20870;SDS011;10595;51.218;3.452;2023-07-30T14:11:35;15.27;;;3.10;;
20870;SDS011;10595;51.218;3.452;2023-07-30T14:14:02;8.37;;;2.60;;
20870;SDS011;10595;51.218;3.452;2023-07-30T14:16:29;11.40;;;2.97;;
20870;SDS011;10595;51.218;3.452;2023-07-30T14:18:55;10.03;;;3.33;;
20870;SDS011;10595;51.218;3.452;2023-07-30T14:21:21;14.33;;;3.80;;
20870;SDS011;10595;51.218;3.452;2023-07-30T14:23:47;13.17;;;3.63;;
20870;SDS011;10595;51.218;3.452;2023-07-30T14:26:13;10.87;;;3.43;;
20870;SDS011;10595;51.218;3.452;2023-07-30T14:28:39;11.83;;;3.30;;
20870;SDS011;10595;51.218;3.452;2023-07-30T14:31:06;11.43;;;4.17;;
20870;SDS011;10595;51.218;3.452;2023-07-30T14:33:32;17.50;;;4.17;;
20870;SDS011;10595;51.218;3.452;2023-07-30T14:35:58;12.53;;;4.33;;
20870;SDS011;10595;51.218;3.452;2023-07-30T14:38:24;10.23;;;3.70;;